sensor_id;sensor_type;location;lat;lon;timestamp;P1;durP1;ratioP1;P2;durP2;ratioP2
23608;SDS011;11982;50.810;4.442;2023-12-20T00:01:46;22.85;;;3.65;;
23608;SDS011;11982;50.810;4.442;2023-12-20T00:04:12;19.33;;;3.38;;
23608;SDS011;11982;50.810;4.442;2023-12-20T00:06:38;24.42;;;3.47;;
23608;SDS011;11982;50.810;4.442;2023-12-20T00:09:03;13.65;;;3.10;;
23608;SDS011;11982;50.810;4.442;2023-12-20T00:11:29;16.10;;;3.13;;
23608;SDS011;11982;50.810;4.442;2023-12-20T00:13:55;27.73;;;3.60;;
23608;SDS011;11982;50.810;4.442;2023-12-20T00:19:42;14.43;;;2.65;;
23608;SDS011;11982;50.810;4.442;2023-12-20T00:22:08;18.98;;;3.53;;
23608;SDS011;11982;50.810;4.442;2023-12-20T00:24:33;23.77;;;3.75;;
23608;SDS011;11982;50.810;4.442;2023-12-20T00:26:59;19.27;;;3.22;;
23608;SDS011;11982;50.810;4.442;2023-12-20T00:29:24;15.55;;;2.78;;
23608;SDS011;11982;50.810;4.442;2023-12-20T00:35:13;18.38;;;3.40;;
23608;SDS011;11982;50.810;4.442;2023-12-20T00:37:39;16.05;;;3.40;;
23608;SDS011;11982;50.810;4.442;2023-12-20T00:40:05;27.02;;;3.55;;
23608;SDS011;11982;50.810;4.442;2023-12-20T00:42:31;27.23;;;3.38;;
23608;SDS011;11982;50.810;4.442;2023-12-20T00:44:58;27.42;;;4.22;;
23608;SDS011;11982;50.810;4.442;2023-12-20T00:47:24;11.93;;;2.80;;
23608;SDS011;11982;50.810;4.442;2023-12-20T00:49:49;17.98;;;3.15;;
23608;SDS011;11982;50.810;4.442;2023-12-20T00:52:15;19.95;;;3.85;;
23608;SDS011;11982;50.810;4.442;2023-12-20T00:54:42;18.30;;;3.47;;
23608;SDS011;11982;50.810;4.442;2023-12-20T00:57:08;28.30;;;4.40;;
23608;SDS011;11982;50.810;4.442;2023-12-20T00:59:34;15.98;;;3.83;;
23608;SDS011;11982;50.810;4.442;2023-12-20T01:05:22;15.57;;;3.42;;
23608;SDS011;11982;50.810;4.442;2023-12-20T01:07:48;20.23;;;3.70;;
23608;SDS011;11982;50.810;4.442;2023-12-20T01:10:14;24.00;;;4.07;;
23608;SDS011;11982;50.810;4.442;2023-12-20T01:12:40;19.42;;;4.03;;
23608;SDS011;11982;50.810;4.442;2023-12-20T01:15:05;19.40;;;4.43;;
23608;SDS011;11982;50.810;4.442;2023-12-20T01:20:53;22.15;;;3.88;;
23608;SDS011;11982;50.810;4.442;2023-12-20T01:23:19;25.45;;;4.03;;
23608;SDS011;11982;50.810;4.442;2023-12-20T01:25:44;22.50;;;5.03;;
23608;SDS011;11982;50.810;4.442;2023-12-20T01:28:10;24.40;;;4.70;;
23608;SDS011;11982;50.810;4.442;2023-12-20T01:30:36;24.75;;;4.28;;
23608;SDS011;11982;50.810;4.442;2023-12-20T01:33:01;30.75;;;5.20;;
23608;SDS011;11982;50.810;4.442;2023-12-20T01:35:27;27.33;;;4.78;;
23608;SDS011;11982;50.810;4.442;2023-12-20T01:37:53;26.27;;;4.22;;
23608;SDS011;11982;50.810;4.442;2023-12-20T01:40:22;26.25;;;4.18;;
23608;SDS011;11982;50.810;4.442;2023-12-20T01:42:48;17.83;;;4.22;;
23608;SDS011;11982;50.810;4.442;2023-12-20T01:45:26;22.05;;;4.22;;
23608;SDS011;11982;50.810;4.442;2023-12-20T01:51:14;17.33;;;3.92;;
23608;SDS011;11982;50.810;4.442;2023-12-20T01:53:41;29.08;;;5.07;;
23608;SDS011;11982;50.810;4.442;2023-12-20T01:56:07;20.73;;;4.80;;
23608;SDS011;11982;50.810;4.442;2023-12-20T01:58:35;21.48;;;5.00;;
23608;SDS011;11982;50.810;4.442;2023-12-20T02:01:08;24.38;;;5.00;;
23608;SDS011;11982;50.810;4.442;2023-12-20T02:03:34;25.17;;;5.25;;
23608;SDS011;11982;50.810;4.442;2023-12-20T02:06:01;17.08;;;5.63;;
23608;SDS011;11982;50.810;4.442;2023-12-20T02:08:28;23.05;;;4.55;;
23608;SDS011;11982;50.810;4.442;2023-12-20T02:10:54;22.88;;;4.85;;
23608;SDS011;11982;50.810;4.442;2023-12-20T02:13:21;29.95;;;4.50;;
23608;SDS011;11982;50.810;4.442;2023-12-20T02:15:46;26.42;;;6.18;;
23608;SDS011;11982;50.810;4.442;2023-12-20T02:21:34;25.15;;;5.72;;
23608;SDS011;11982;50.810;4.442;2023-12-20T02:24:00;20.00;;;4.63;;
23608;SDS011;11982;50.810;4.442;2023-12-20T02:26:26;21.67;;;5.05;;
23608;SDS011;11982;50.810;4.442;2023-12-20T02:28:52;20.55;;;5.20;;
23608;SDS011;11982;50.810;4.442;2023-12-20T02:31:20;34.00;;;6.13;;
23608;SDS011;11982;50.810;4.442;2023-12-20T02:33:47;26.13;;;5.82;;
23608;SDS011;11982;50.810;4.442;2023-12-20T02:36:13;25.50;;;5.47;;
23608;SDS011;11982;50.810;4.442;2023-12-20T02:38:38;23.55;;;5.50;;
23608;SDS011;11982;50.810;4.442;2023-12-20T02:41:04;26.38;;;5.32;;
23608;SDS011;11982;50.810;4.442;2023-12-20T02:43:29;18.80;;;5.82;;
23608;SDS011;11982;50.810;4.442;2023-12-20T02:45:55;21.73;;;5.50;;
23608;SDS011;11982;50.810;4.442;2023-12-20T02:51:42;28.30;;;6.03;;
23608;SDS011;11982;50.810;4.442;2023-12-20T02:54:08;22.73;;;5.43;;
23608;SDS011;11982;50.810;4.442;2023-12-20T02:56:34;23.65;;;5.60;;
23608;SDS011;11982;50.810;4.442;2023-12-20T02:58:59;24.90;;;6.38;;
23608;SDS011;11982;50.810;4.442;2023-12-20T03:01:26;26.55;;;6.05;;
23608;SDS011;11982;50.810;4.442;2023-12-20T03:07:14;32.00;;;6.43;;
23608;SDS011;11982;50.810;4.442;2023-12-20T03:09:39;27.05;;;6.00;;
23608;SDS011;11982;50.810;4.442;2023-12-20T03:12:05;35.15;;;7.15;;
23608;SDS011;11982;50.810;4.442;2023-12-20T03:14:31;26.40;;;6.07;;
23608;SDS011;11982;50.810;4.442;2023-12-20T03:16:56;25.40;;;6.90;;
23608;SDS011;11982;50.810;4.442;2023-12-20T03:19:22;25.58;;;6.88;;
23608;SDS011;11982;50.810;4.442;2023-12-20T03:21:48;35.72;;;7.30;;
23608;SDS011;11982;50.810;4.442;2023-12-20T03:24:13;25.85;;;7.57;;
23608;SDS011;11982;50.810;4.442;2023-12-20T03:26:39;32.47;;;7.63;;
23608;SDS011;11982;50.810;4.442;2023-12-20T03:29:05;33.45;;;7.72;;
23608;SDS011;11982;50.810;4.442;2023-12-20T03:31:30;31.60;;;8.07;;
23608;SDS011;11982;50.810;4.442;2023-12-20T03:37:18;34.67;;;7.57;;
23608;SDS011;11982;50.810;4.442;2023-12-20T03:39:44;38.30;;;7.75;;
23608;SDS011;11982;50.810;4.442;2023-12-20T03:42:09;26.80;;;7.13;;
23608;SDS011;11982;50.810;4.442;2023-12-20T03:44:38;33.38;;;8.10;;
23608;SDS011;11982;50.810;4.442;2023-12-20T03:47:04;31.67;;;7.78;;
23608;SDS011;11982;50.810;4.442;2023-12-20T03:52:52;22.02;;;6.75;;
23608;SDS011;11982;50.810;4.442;2023-12-20T03:55:18;28.70;;;7.40;;
23608;SDS011;11982;50.810;4.442;2023-12-20T03:57:44;23.13;;;6.63;;
23608;SDS011;11982;50.810;4.442;2023-12-20T04:00:10;32.63;;;7.93;;
23608;SDS011;11982;50.810;4.442;2023-12-20T04:02:40;30.65;;;6.82;;
23608;SDS011;11982;50.810;4.442;2023-12-20T04:05:07;34.15;;;7.47;;
23608;SDS011;11982;50.810;4.442;2023-12-20T04:07:33;26.52;;;6.95;;
23608;SDS011;11982;50.810;4.442;2023-12-20T04:09:59;34.72;;;6.18;;
23608;SDS011;11982;50.810;4.442;2023-12-20T04:12:26;27.15;;;6.55;;
23608;SDS011;11982;50.810;4.442;2023-12-20T04:14:53;28.85;;;6.68;;
23608;SDS011;11982;50.810;4.442;2023-12-20T04:17:19;30.65;;;6.82;;
23608;SDS011;11982;50.810;4.442;2023-12-20T04:23:07;27.75;;;6.28;;
23608;SDS011;11982;50.810;4.442;2023-12-20T04:25:33;21.75;;;5.57;;
23608;SDS011;11982;50.810;4.442;2023-12-20T04:27:58;27.10;;;5.93;;
23608;SDS011;11982;50.810;4.442;2023-12-20T04:30:24;30.45;;;5.85;;
23608;SDS011;11982;50.810;4.442;2023-12-20T04:32:50;26.38;;;5.70;;
23608;SDS011;11982;50.810;4.442;2023-12-20T04:38:37;25.83;;;5.55;;
23608;SDS011;11982;50.810;4.442;2023-12-20T04:41:02;26.38;;;5.65;;
23608;SDS011;11982;50.810;4.442;2023-12-20T04:43:28;23.83;;;5.63;;
23608;SDS011;11982;50.810;4.442;2023-12-20T04:45:54;21.98;;;4.95;;
23608;SDS011;11982;50.810;4.442;2023-12-20T04:48:20;27.83;;;5.97;;
23608;SDS011;11982;50.810;4.442;2023-12-20T04:50:46;21.73;;;5.65;;
23608;SDS011;11982;50.810;4.442;2023-12-20T04:53:11;17.02;;;5.43;;
23608;SDS011;11982;50.810;4.442;2023-12-20T04:55:37;29.73;;;4.97;;
23608;SDS011;11982;50.810;4.442;2023-12-20T04:58:06;21.25;;;6.40;;
23608;SDS011;11982;50.810;4.442;2023-12-20T05:00:31;31.02;;;5.05;;
23608;SDS011;11982;50.810;4.442;2023-12-20T05:02:57;25.90;;;6.65;;
23608;SDS011;11982;50.810;4.442;2023-12-20T05:08:45;25.42;;;5.97;;
23608;SDS011;11982;50.810;4.442;2023-12-20T05:11:10;24.58;;;6.05;;
23608;SDS011;11982;50.810;4.442;2023-12-20T05:13:38;28.48;;;5.50;;
23608;SDS011;11982;50.810;4.442;2023-12-20T05:16:03;26.75;;;6.03;;
23608;SDS011;11982;50.810;4.442;2023-12-20T05:18:29;30.35;;;6.35;;
23608;SDS011;11982;50.810;4.442;2023-12-20T05:20:55;21.00;;;6.10;;
23608;SDS011;11982;50.810;4.442;2023-12-20T05:23:21;27.80;;;6.40;;
23608;SDS011;11982;50.810;4.442;2023-12-20T05:25:46;21.35;;;5.50;;
23608;SDS011;11982;50.810;4.442;2023-12-20T05:28:12;22.08;;;5.88;;
23608;SDS011;11982;50.810;4.442;2023-12-20T05:30:38;19.27;;;5.18;;
23608;SDS011;11982;50.810;4.442;2023-12-20T05:33:03;23.98;;;5.30;;
23608;SDS011;11982;50.810;4.442;2023-12-20T05:38:51;30.33;;;6.65;;
23608;SDS011;11982;50.810;4.442;2023-12-20T05:41:16;28.75;;;6.22;;
23608;SDS011;11982;50.810;4.442;2023-12-20T05:43:42;32.88;;;5.00;;
23608;SDS011;11982;50.810;4.442;2023-12-20T05:46:09;26.48;;;5.50;;
23608;SDS011;11982;50.810;4.442;2023-12-20T05:48:37;21.83;;;5.65;;
23608;SDS011;11982;50.810;4.442;2023-12-20T05:54:24;29.40;;;5.65;;
23608;SDS011;11982;50.810;4.442;2023-12-20T05:56:50;27.20;;;5.10;;
23608;SDS011;11982;50.810;4.442;2023-12-20T05:59:16;28.75;;;5.53;;
23608;SDS011;11982;50.810;4.442;2023-12-20T06:01:41;23.13;;;4.90;;
23608;SDS011;11982;50.810;4.442;2023-12-20T06:04:07;24.98;;;5.13;;
23608;SDS011;11982;50.810;4.442;2023-12-20T06:06:33;27.55;;;5.57;;
23608;SDS011;11982;50.810;4.442;2023-12-20T06:08:58;25.77;;;4.63;;
23608;SDS011;11982;50.810;4.442;2023-12-20T06:11:24;22.50;;;4.75;;
23608;SDS011;11982;50.810;4.442;2023-12-20T06:13:50;20.40;;;5.40;;
23608;SDS011;11982;50.810;4.442;2023-12-20T06:16:18;37.85;;;6.25;;
23608;SDS011;11982;50.810;4.442;2023-12-20T06:18:44;23.35;;;5.50;;
23608;SDS011;11982;50.810;4.442;2023-12-20T06:24:31;27.17;;;5.22;;
23608;SDS011;11982;50.810;4.442;2023-12-20T06:26:59;31.08;;;5.80;;
23608;SDS011;11982;50.810;4.442;2023-12-20T06:29:24;22.52;;;5.57;;
23608;SDS011;11982;50.810;4.442;2023-12-20T06:31:50;17.80;;;5.13;;
23608;SDS011;11982;50.810;4.442;2023-12-20T06:34:16;27.70;;;6.20;;
23608;SDS011;11982;50.810;4.442;2023-12-20T06:40:03;21.65;;;5.25;;
23608;SDS011;11982;50.810;4.442;2023-12-20T06:42:30;22.98;;;4.65;;
23608;SDS011;11982;50.810;4.442;2023-12-20T06:44:55;23.77;;;5.50;;
23608;SDS011;11982;50.810;4.442;2023-12-20T06:47:21;29.58;;;5.28;;
23608;SDS011;11982;50.810;4.442;2023-12-20T06:49:46;28.73;;;5.68;;
23608;SDS011;11982;50.810;4.442;2023-12-20T06:52:13;22.05;;;4.40;;
23608;SDS011;11982;50.810;4.442;2023-12-20T06:54:38;28.38;;;4.65;;
23608;SDS011;11982;50.810;4.442;2023-12-20T06:57:04;23.58;;;4.75;;
23608;SDS011;11982;50.810;4.442;2023-12-20T06:59:30;27.45;;;4.68;;
23608;SDS011;11982;50.810;4.442;2023-12-20T07:01:55;17.95;;;4.18;;
23608;SDS011;11982;50.810;4.442;2023-12-20T07:04:21;18.92;;;4.20;;
23608;SDS011;11982;50.810;4.442;2023-12-20T07:10:09;23.73;;;4.15;;
23608;SDS011;11982;50.810;4.442;2023-12-20T07:12:34;14.90;;;3.88;;
23608;SDS011;11982;50.810;4.442;2023-12-20T07:15:00;18.67;;;4.10;;
23608;SDS011;11982;50.810;4.442;2023-12-20T07:17:26;26.08;;;4.45;;
23608;SDS011;11982;50.810;4.442;2023-12-20T07:19:52;27.58;;;5.00;;
23608;SDS011;11982;50.810;4.442;2023-12-20T07:25:40;25.15;;;4.28;;
23608;SDS011;11982;50.810;4.442;2023-12-20T07:28:06;28.23;;;4.82;;
23608;SDS011;11982;50.810;4.442;2023-12-20T07:30:31;25.63;;;5.25;;
23608;SDS011;11982;50.810;4.442;2023-12-20T07:32:57;18.58;;;4.50;;
23608;SDS011;11982;50.810;4.442;2023-12-20T07:35:23;23.05;;;4.43;;
23608;SDS011;11982;50.810;4.442;2023-12-20T07:37:50;21.40;;;4.53;;
23608;SDS011;11982;50.810;4.442;2023-12-20T07:40:15;21.52;;;4.35;;
23608;SDS011;11982;50.810;4.442;2023-12-20T07:42:42;20.10;;;4.38;;
23608;SDS011;11982;50.810;4.442;2023-12-20T07:45:08;24.92;;;4.78;;
23608;SDS011;11982;50.810;4.442;2023-12-20T07:47:35;30.27;;;5.38;;
23608;SDS011;11982;50.810;4.442;2023-12-20T07:50:01;20.20;;;5.18;;
23608;SDS011;11982;50.810;4.442;2023-12-20T07:55:49;28.92;;;5.70;;
23608;SDS011;11982;50.810;4.442;2023-12-20T07:58:17;28.38;;;4.68;;
23608;SDS011;11982;50.810;4.442;2023-12-20T08:00:43;30.50;;;4.15;;
23608;SDS011;11982;50.810;4.442;2023-12-20T08:03:09;21.83;;;4.45;;
23608;SDS011;11982;50.810;4.442;2023-12-20T08:05:34;21.92;;;4.30;;
23608;SDS011;11982;50.810;4.442;2023-12-20T08:11:22;29.80;;;4.53;;
23608;SDS011;11982;50.810;4.442;2023-12-20T08:13:48;20.48;;;4.30;;
23608;SDS011;11982;50.810;4.442;2023-12-20T08:16:14;25.45;;;4.15;;
23608;SDS011;11982;50.810;4.442;2023-12-20T08:18:42;22.70;;;3.80;;
23608;SDS011;11982;50.810;4.442;2023-12-20T08:21:08;21.30;;;3.75;;
23608;SDS011;11982;50.810;4.442;2023-12-20T08:23:34;20.45;;;3.88;;
23608;SDS011;11982;50.810;4.442;2023-12-20T08:26:08;15.30;;;3.95;;
23608;SDS011;11982;50.810;4.442;2023-12-20T08:28:34;25.33;;;4.00;;
23608;SDS011;11982;50.810;4.442;2023-12-20T08:31:01;28.63;;;4.53;;
23608;SDS011;11982;50.810;4.442;2023-12-20T08:33:27;31.13;;;3.85;;
23608;SDS011;11982;50.810;4.442;2023-12-20T08:35:52;24.15;;;4.18;;
23608;SDS011;11982;50.810;4.442;2023-12-20T08:41:40;20.88;;;4.15;;
23608;SDS011;11982;50.810;4.442;2023-12-20T08:44:05;21.35;;;4.00;;
23608;SDS011;11982;50.810;4.442;2023-12-20T08:46:31;27.33;;;5.00;;
23608;SDS011;11982;50.810;4.442;2023-12-20T08:48:57;28.45;;;5.15;;
23608;SDS011;11982;50.810;4.442;2023-12-20T08:51:22;25.85;;;4.40;;
23608;SDS011;11982;50.810;4.442;2023-12-20T08:53:50;29.58;;;4.32;;
23608;SDS011;11982;50.810;4.442;2023-12-20T08:56:16;20.58;;;3.55;;
23608;SDS011;11982;50.810;4.442;2023-12-20T08:58:43;34.80;;;4.45;;
23608;SDS011;11982;50.810;4.442;2023-12-20T09:01:09;21.55;;;3.90;;
23608;SDS011;11982;50.810;4.442;2023-12-20T09:03:35;26.73;;;4.45;;
23608;SDS011;11982;50.810;4.442;2023-12-20T09:06:00;30.25;;;4.15;;
23608;SDS011;11982;50.810;4.442;2023-12-20T09:11:48;27.15;;;4.57;;
23608;SDS011;11982;50.810;4.442;2023-12-20T09:14:16;21.23;;;4.25;;
23608;SDS011;11982;50.810;4.442;2023-12-20T09:16:42;18.13;;;2.78;;
23608;SDS011;11982;50.810;4.442;2023-12-20T09:19:07;28.33;;;4.38;;
23608;SDS011;11982;50.810;4.442;2023-12-20T09:21:33;20.20;;;3.75;;
23608;SDS011;11982;50.810;4.442;2023-12-20T09:23:58;21.05;;;3.92;;
23608;SDS011;11982;50.810;4.442;2023-12-20T09:26:24;22.55;;;3.40;;
23608;SDS011;11982;50.810;4.442;2023-12-20T09:28:50;30.55;;;4.43;;
23608;SDS011;11982;50.810;4.442;2023-12-20T09:31:15;21.52;;;3.58;;
23608;SDS011;11982;50.810;4.442;2023-12-20T09:33:41;21.25;;;3.90;;
23608;SDS011;11982;50.810;4.442;2023-12-20T09:36:07;20.63;;;3.92;;
23608;SDS011;11982;50.810;4.442;2023-12-20T09:42:03;15.00;;;3.53;;
23608;SDS011;11982;50.810;4.442;2023-12-20T09:44:30;26.25;;;4.30;;
23608;SDS011;11982;50.810;4.442;2023-12-20T09:46:57;14.18;;;4.03;;
23608;SDS011;11982;50.810;4.442;2023-12-20T09:49:23;19.17;;;3.42;;
23608;SDS011;11982;50.810;4.442;2023-12-20T09:51:50;16.10;;;3.58;;
23608;SDS011;11982;50.810;4.442;2023-12-20T09:54:17;20.85;;;3.70;;
23608;SDS011;11982;50.810;4.442;2023-12-20T09:56:46;24.50;;;4.22;;
23608;SDS011;11982;50.810;4.442;2023-12-20T09:59:12;21.80;;;4.07;;
23608;SDS011;11982;50.810;4.442;2023-12-20T10:01:42;22.25;;;3.75;;
23608;SDS011;11982;50.810;4.442;2023-12-20T10:04:09;25.27;;;4.25;;
23608;SDS011;11982;50.810;4.442;2023-12-20T10:06:40;24.92;;;4.22;;
23608;SDS011;11982;50.810;4.442;2023-12-20T10:12:28;20.77;;;3.85;;
23608;SDS011;11982;50.810;4.442;2023-12-20T10:14:54;23.75;;;4.15;;
23608;SDS011;11982;50.810;4.442;2023-12-20T10:17:19;19.90;;;3.30;;
23608;SDS011;11982;50.810;4.442;2023-12-20T10:19:46;22.60;;;3.70;;
23608;SDS011;11982;50.810;4.442;2023-12-20T10:22:12;13.00;;;3.38;;
23608;SDS011;11982;50.810;4.442;2023-12-20T10:24:39;22.88;;;4.07;;
23608;SDS011;11982;50.810;4.442;2023-12-20T10:27:06;24.65;;;3.90;;
23608;SDS011;11982;50.810;4.442;2023-12-20T10:29:35;14.65;;;3.53;;
23608;SDS011;11982;50.810;4.442;2023-12-20T10:34:49;16.45;;;3.88;;
23608;SDS011;11982;50.810;4.442;2023-12-20T10:37:15;22.55;;;5.18;;
23608;SDS011;11982;50.810;4.442;2023-12-20T10:39:42;23.08;;;4.47;;
23608;SDS011;11982;50.810;4.442;2023-12-20T10:42:09;19.90;;;3.35;;
23608;SDS011;11982;50.810;4.442;2023-12-20T10:44:36;25.25;;;3.97;;
23608;SDS011;11982;50.810;4.442;2023-12-20T10:47:03;12.93;;;3.03;;
23608;SDS011;11982;50.810;4.442;2023-12-20T10:49:29;21.85;;;3.42;;
23608;SDS011;11982;50.810;4.442;2023-12-20T10:51:56;26.58;;;4.72;;
23608;SDS011;11982;50.810;4.442;2023-12-20T10:58:01;26.25;;;3.97;;
23608;SDS011;11982;50.810;4.442;2023-12-20T11:00:30;18.88;;;4.82;;
23608;SDS011;11982;50.810;4.442;2023-12-20T11:03:00;15.50;;;3.50;;
23608;SDS011;11982;50.810;4.442;2023-12-20T11:13:40;17.92;;;3.90;;
23608;SDS011;11982;50.810;4.442;2023-12-20T11:16:20;17.25;;;3.20;;
23608;SDS011;11982;50.810;4.442;2023-12-20T11:18:46;25.92;;;4.13;;
23608;SDS011;11982;50.810;4.442;2023-12-20T11:21:12;24.52;;;3.97;;
23608;SDS011;11982;50.810;4.442;2023-12-20T11:23:39;19.58;;;3.38;;
23608;SDS011;11982;50.810;4.442;2023-12-20T11:26:07;19.58;;;3.47;;
23608;SDS011;11982;50.810;4.442;2023-12-20T11:28:33;20.58;;;3.65;;
23608;SDS011;11982;50.810;4.442;2023-12-20T11:31:00;18.83;;;3.40;;
23608;SDS011;11982;50.810;4.442;2023-12-20T11:33:31;22.08;;;3.55;;
23608;SDS011;11982;50.810;4.442;2023-12-20T11:35:57;21.10;;;3.55;;
23608;SDS011;11982;50.810;4.442;2023-12-20T11:38:24;22.60;;;3.63;;
23608;SDS011;11982;50.810;4.442;2023-12-20T11:40:50;18.95;;;4.10;;
23608;SDS011;11982;50.810;4.442;2023-12-20T11:46:01;20.88;;;3.53;;
23608;SDS011;11982;50.810;4.442;2023-12-20T11:48:31;19.35;;;4.07;;
23608;SDS011;11982;50.810;4.442;2023-12-20T11:50:58;20.50;;;3.90;;
23608;SDS011;11982;50.810;4.442;2023-12-20T11:53:24;26.48;;;4.22;;
23608;SDS011;11982;50.810;4.442;2023-12-20T11:55:50;25.02;;;4.38;;
23608;SDS011;11982;50.810;4.442;2023-12-20T11:58:16;21.27;;;4.60;;
23608;SDS011;11982;50.810;4.442;2023-12-20T12:00:42;22.23;;;4.13;;
23608;SDS011;11982;50.810;4.442;2023-12-20T12:03:08;21.15;;;4.47;;
23608;SDS011;11982;50.810;4.442;2023-12-20T12:05:34;24.05;;;4.80;;
23608;SDS011;11982;50.810;4.442;2023-12-20T12:08:01;28.90;;;4.43;;
23608;SDS011;11982;50.810;4.442;2023-12-20T12:13:49;23.75;;;4.00;;
23608;SDS011;11982;50.810;4.442;2023-12-20T12:16:18;22.15;;;4.10;;
23608;SDS011;11982;50.810;4.442;2023-12-20T12:18:45;22.02;;;3.80;;
23608;SDS011;11982;50.810;4.442;2023-12-20T12:21:18;24.50;;;4.32;;
23608;SDS011;11982;50.810;4.442;2023-12-20T12:23:45;23.75;;;4.32;;
23608;SDS011;11982;50.810;4.442;2023-12-20T12:26:11;28.30;;;4.53;;
23608;SDS011;11982;50.810;4.442;2023-12-20T12:28:37;24.52;;;4.53;;
23608;SDS011;11982;50.810;4.442;2023-12-20T12:31:06;24.55;;;4.30;;
23608;SDS011;11982;50.810;4.442;2023-12-20T12:33:32;25.98;;;3.70;;
23608;SDS011;11982;50.810;4.442;2023-12-20T12:35:57;24.23;;;4.53;;
23608;SDS011;11982;50.810;4.442;2023-12-20T12:38:24;25.95;;;4.75;;
23608;SDS011;11982;50.810;4.442;2023-12-20T12:44:12;19.25;;;3.47;;
23608;SDS011;11982;50.810;4.442;2023-12-20T12:46:38;18.75;;;3.40;;
23608;SDS011;11982;50.810;4.442;2023-12-20T12:49:04;24.08;;;3.65;;
23608;SDS011;11982;50.810;4.442;2023-12-20T12:51:29;13.68;;;3.90;;
23608;SDS011;11982;50.810;4.442;2023-12-20T12:53:56;16.85;;;3.75;;
23608;SDS011;11982;50.810;4.442;2023-12-20T12:56:22;25.45;;;4.72;;
23608;SDS011;11982;50.810;4.442;2023-12-20T12:58:48;21.23;;;3.80;;
23608;SDS011;11982;50.810;4.442;2023-12-20T13:01:14;19.67;;;4.20;;
23608;SDS011;11982;50.810;4.442;2023-12-20T13:03:39;25.38;;;3.97;;
23608;SDS011;11982;50.810;4.442;2023-12-20T13:06:05;18.38;;;4.25;;
23608;SDS011;11982;50.810;4.442;2023-12-20T13:08:33;24.10;;;4.38;;
23608;SDS011;11982;50.810;4.442;2023-12-20T13:14:21;18.98;;;3.40;;
23608;SDS011;11982;50.810;4.442;2023-12-20T13:16:46;26.35;;;4.22;;
23608;SDS011;11982;50.810;4.442;2023-12-20T13:19:12;26.55;;;3.60;;
23608;SDS011;11982;50.810;4.442;2023-12-20T13:21:38;27.67;;;4.22;;
23608;SDS011;11982;50.810;4.442;2023-12-20T13:24:04;25.95;;;4.75;;
23608;SDS011;11982;50.810;4.442;2023-12-20T13:26:30;27.27;;;5.00;;
23608;SDS011;11982;50.810;4.442;2023-12-20T13:28:56;26.10;;;3.88;;
23608;SDS011;11982;50.810;4.442;2023-12-20T13:31:22;20.42;;;3.80;;
23608;SDS011;11982;50.810;4.442;2023-12-20T13:33:47;18.48;;;3.67;;
23608;SDS011;11982;50.810;4.442;2023-12-20T13:36:13;16.38;;;3.45;;
23608;SDS011;11982;50.810;4.442;2023-12-20T13:38:42;27.63;;;4.30;;
23608;SDS011;11982;50.810;4.442;2023-12-20T13:44:30;20.52;;;3.55;;
23608;SDS011;11982;50.810;4.442;2023-12-20T13:46:56;21.83;;;3.38;;
23608;SDS011;11982;50.810;4.442;2023-12-20T13:49:22;18.05;;;3.50;;
23608;SDS011;11982;50.810;4.442;2023-12-20T13:51:50;21.15;;;4.28;;
23608;SDS011;11982;50.810;4.442;2023-12-20T13:54:16;17.55;;;3.85;;
23608;SDS011;11982;50.810;4.442;2023-12-20T14:00:19;23.00;;;4.03;;
23608;SDS011;11982;50.810;4.442;2023-12-20T14:02:45;24.27;;;3.65;;
23608;SDS011;11982;50.810;4.442;2023-12-20T14:05:11;20.05;;;3.40;;
23608;SDS011;11982;50.810;4.442;2023-12-20T14:07:38;20.75;;;4.28;;
23608;SDS011;11982;50.810;4.442;2023-12-20T14:10:04;22.88;;;3.92;;
23608;SDS011;11982;50.810;4.442;2023-12-20T14:12:30;29.48;;;5.03;;
23608;SDS011;11982;50.810;4.442;2023-12-20T14:15:00;16.23;;;4.00;;
23608;SDS011;11982;50.810;4.442;2023-12-20T14:17:26;19.23;;;3.78;;
23608;SDS011;11982;50.810;4.442;2023-12-20T14:19:51;19.45;;;4.18;;
23608;SDS011;11982;50.810;4.442;2023-12-20T14:22:19;31.05;;;4.22;;
23608;SDS011;11982;50.810;4.442;2023-12-20T14:24:45;23.75;;;3.80;;
23608;SDS011;11982;50.810;4.442;2023-12-20T14:31:10;31.52;;;4.85;;
23608;SDS011;11982;50.810;4.442;2023-12-20T14:33:36;24.95;;;4.15;;
23608;SDS011;11982;50.810;4.442;2023-12-20T14:36:06;18.35;;;3.72;;
23608;SDS011;11982;50.810;4.442;2023-12-20T14:38:32;16.95;;;3.20;;
23608;SDS011;11982;50.810;4.442;2023-12-20T14:40:57;25.55;;;4.43;;
23608;SDS011;11982;50.810;4.442;2023-12-20T14:43:23;26.13;;;4.10;;
23608;SDS011;11982;50.810;4.442;2023-12-20T14:45:51;22.75;;;3.97;;
23608;SDS011;11982;50.810;4.442;2023-12-20T14:48:17;26.30;;;3.83;;
23608;SDS011;11982;50.810;4.442;2023-12-20T14:50:43;22.50;;;4.43;;
23608;SDS011;11982;50.810;4.442;2023-12-20T14:53:09;22.25;;;4.15;;
23608;SDS011;11982;50.810;4.442;2023-12-20T14:55:35;18.35;;;3.17;;
23608;SDS011;11982;50.810;4.442;2023-12-20T14:58:01;25.80;;;3.60;;
23608;SDS011;11982;50.810;4.442;2023-12-20T15:00:27;21.02;;;3.65;;
23608;SDS011;11982;50.810;4.442;2023-12-20T15:02:53;21.17;;;3.35;;
23608;SDS011;11982;50.810;4.442;2023-12-20T15:05:19;19.63;;;4.10;;
23608;SDS011;11982;50.810;4.442;2023-12-20T15:07:45;28.50;;;4.35;;
23608;SDS011;11982;50.810;4.442;2023-12-20T15:10:13;23.85;;;4.13;;
23608;SDS011;11982;50.810;4.442;2023-12-20T15:16:00;24.73;;;3.70;;
23608;SDS011;11982;50.810;4.442;2023-12-20T15:18:25;18.58;;;3.92;;
23608;SDS011;11982;50.810;4.442;2023-12-20T15:20:51;19.40;;;3.60;;
23608;SDS011;11982;50.810;4.442;2023-12-20T15:23:17;20.05;;;3.45;;
23608;SDS011;11982;50.810;4.442;2023-12-20T15:25:42;14.23;;;3.42;;
23608;SDS011;11982;50.810;4.442;2023-12-20T15:28:09;15.30;;;4.28;;
23608;SDS011;11982;50.810;4.442;2023-12-20T15:30:36;18.15;;;3.13;;
23608;SDS011;11982;50.810;4.442;2023-12-20T15:33:01;17.63;;;3.65;;
23608;SDS011;11982;50.810;4.442;2023-12-20T15:35:28;17.35;;;3.67;;
23608;SDS011;11982;50.810;4.442;2023-12-20T15:37:54;19.45;;;3.47;;
23608;SDS011;11982;50.810;4.442;2023-12-20T15:40:20;23.25;;;3.75;;
23608;SDS011;11982;50.810;4.442;2023-12-20T15:46:09;18.17;;;2.85;;
23608;SDS011;11982;50.810;4.442;2023-12-20T15:48:35;22.58;;;4.00;;
23608;SDS011;11982;50.810;4.442;2023-12-20T15:51:07;19.42;;;3.47;;
23608;SDS011;11982;50.810;4.442;2023-12-20T15:53:34;18.25;;;3.63;;
23608;SDS011;11982;50.810;4.442;2023-12-20T15:56:00;22.40;;;3.78;;
23608;SDS011;11982;50.810;4.442;2023-12-20T15:58:26;18.52;;;3.53;;
23608;SDS011;11982;50.810;4.442;2023-12-20T16:00:53;20.27;;;3.28;;
23608;SDS011;11982;50.810;4.442;2023-12-20T16:03:18;23.85;;;3.60;;
23608;SDS011;11982;50.810;4.442;2023-12-20T16:05:44;19.67;;;3.75;;
23608;SDS011;11982;50.810;4.442;2023-12-20T16:08:10;18.45;;;3.50;;
23608;SDS011;11982;50.810;4.442;2023-12-20T16:10:35;22.25;;;4.03;;
23608;SDS011;11982;50.810;4.442;2023-12-20T16:16:23;17.67;;;3.95;;
23608;SDS011;11982;50.810;4.442;2023-12-20T16:18:48;28.45;;;5.25;;
23608;SDS011;11982;50.810;4.442;2023-12-20T16:21:14;22.33;;;3.95;;
23608;SDS011;11982;50.810;4.442;2023-12-20T16:23:40;26.23;;;3.90;;
23608;SDS011;11982;50.810;4.442;2023-12-20T16:26:05;16.95;;;3.97;;
23608;SDS011;11982;50.810;4.442;2023-12-20T16:31:53;28.20;;;3.65;;
23608;SDS011;11982;50.810;4.442;2023-12-20T16:34:18;20.05;;;4.05;;
23608;SDS011;11982;50.810;4.442;2023-12-20T16:36:51;17.23;;;4.20;;
23608;SDS011;11982;50.810;4.442;2023-12-20T16:39:18;27.30;;;4.97;;
23608;SDS011;11982;50.810;4.442;2023-12-20T16:41:45;22.90;;;4.20;;
23608;SDS011;11982;50.810;4.442;2023-12-20T16:44:11;15.30;;;3.97;;